createdAt,value
2023-02-01T00:00:30.578Z,73.16
2023-02-01T00:02:57.018Z,73.08
2023-02-01T00:05:23.462Z,73.03
2023-02-01T00:07:50.210Z,73.12
2023-02-01T00:10:17.474Z,72.98
2023-02-01T00:12:44.645Z,72.91
2023-02-01T00:15:11.566Z,72.83
2023-02-01T00:17:38.199Z,72.93
2023-02-01T00:20:05.277Z,72.63
2023-02-01T00:22:31.827Z,72.79
2023-02-01T00:24:58.360Z,72.76
2023-02-01T00:27:24.995Z,72.94
2023-02-01T00:29:51.415Z,72.66
2023-02-01T00:32:17.901Z,72.45
2023-02-01T00:34:44.395Z,72.60
2023-02-01T00:37:10.853Z,72.83
2023-02-01T00:39:37.327Z,72.95
2023-02-01T00:42:04.513Z,72.41
2023-02-01T00:44:34.231Z,72.43
2023-02-01T00:47:01.536Z,72.57
2023-02-01T00:49:29.277Z,72.40
2023-02-01T00:51:56.171Z,72.47
2023-02-01T00:54:22.660Z,72.43
2023-02-01T00:56:49.154Z,72.44
2023-02-01T00:59:15.858Z,72.00
2023-02-01T01:01:42.375Z,72.18
2023-02-01T01:04:09.009Z,72.11
2023-02-01T01:06:35.876Z,72.28
2023-02-01T01:09:05.738Z,71.55
2023-02-01T01:11:35.905Z,71.68
2023-02-01T01:14:02.512Z,72.17
2023-02-01T01:16:31.005Z,71.93
2023-02-01T01:18:57.985Z,71.99
2023-02-01T01:21:24.883Z,71.68
2023-02-01T01:23:51.672Z,71.74
2023-02-01T01:26:21.817Z,71.30
2023-02-01T01:28:48.481Z,71.77
2023-02-01T01:31:16.956Z,71.72
2023-02-01T01:33:44.757Z,71.67
2023-02-01T01:36:12.935Z,71.58
2023-02-01T01:38:41.254Z,72.01
2023-02-01T01:41:08.825Z,71.63
2023-02-01T01:43:53.635Z,69.88
2023-02-01T01:46:23.680Z,71.55
2023-02-01T01:49:08.194Z,70.15
2023-02-01T01:51:40.768Z,70.76
2023-02-01T01:54:35.935Z,69.61
2023-02-01T01:57:34.530Z,69.84
2023-02-01T02:00:08.450Z,70.89
2023-02-01T02:02:36.960Z,71.69
2023-02-01T02:05:04.223Z,72.05
2023-02-01T02:10:02.994Z,72.22
2023-02-01T02:12:29.801Z,71.93
2023-02-01T02:14:56.690Z,72.01
2023-02-01T02:17:31.228Z,71.16
2023-02-01T02:20:53.731Z,69.94
2023-02-01T02:23:37.800Z,70.91
2023-02-01T02:26:15.349Z,70.04
2023-02-01T02:29:06.597Z,68.44
2023-02-01T02:32:11.017Z,69.39
2023-02-01T02:34:50.567Z,70.20
2023-02-01T02:37:36.197Z,70.30
2023-02-01T02:40:15.605Z,69.36
2023-02-01T02:43:03.784Z,72.15
2023-02-01T02:46:03.864Z,70.66
2023-02-01T02:48:42.005Z,69.96
2023-02-01T02:51:30.203Z,71.02
2023-02-01T02:54:31.199Z,69.28
2023-02-01T02:57:19.052Z,71.09
2023-02-01T03:00:06.992Z,71.48
2023-02-01T03:02:53.253Z,71.69
2023-02-01T03:05:19.847Z,71.65
2023-02-01T03:08:05.015Z,69.73
2023-02-01T03:11:09.736Z,69.77
2023-02-01T03:13:58.920Z,68.79
2023-02-01T03:16:43.456Z,69.75
2023-02-01T03:19:22.935Z,70.57
2023-02-01T03:21:57.699Z,70.99
2023-02-01T03:24:39.044Z,70.92
2023-02-01T03:27:36.647Z,69.97
2023-02-01T03:30:18.925Z,70.46
2023-02-01T03:33:00.727Z,71.21
2023-02-01T03:35:38.465Z,70.65
2023-02-01T03:38:08.805Z,70.36
2023-02-01T03:40:37.920Z,70.72
2023-02-01T03:43:08.380Z,71.02
2023-02-01T03:45:41.675Z,71.21
2023-02-01T03:48:10.041Z,71.07
2023-02-01T03:50:39.454Z,70.90
2023-02-01T03:53:15.782Z,70.49
2023-02-01T03:55:43.228Z,71.40
2023-02-01T03:58:14.405Z,71.73
2023-02-01T04:00:41.948Z,71.64
2023-02-01T04:03:08.661Z,71.60
2023-02-01T04:05:35.375Z,71.57
2023-02-01T04:08:01.932Z,71.80
2023-02-01T04:10:28.820Z,71.84
2023-02-01T04:12:55.530Z,71.96
2023-02-01T04:15:22.097Z,71.74
2023-02-01T04:17:48.588Z,71.80
2023-02-01T04:20:15.168Z,72.08
2023-02-01T04:22:41.765Z,72.40
2023-02-01T04:25:09.024Z,72.36
2023-02-01T04:27:36.182Z,72.42
2023-02-01T04:30:04.078Z,72.48
2023-02-01T04:32:30.490Z,72.52
2023-02-01T04:34:56.988Z,72.60
2023-02-01T04:37:23.546Z,72.68
2023-02-01T04:39:50.071Z,72.91
2023-02-01T04:42:16.655Z,72.75
2023-02-01T04:44:43.856Z,72.71
2023-02-01T04:47:10.600Z,72.72
2023-02-01T04:49:37.146Z,73.05
2023-02-01T04:52:04.124Z,73.21
2023-02-01T04:54:30.458Z,73.23
2023-02-01T04:56:56.867Z,73.07
2023-02-01T04:59:23.324Z,73.15
2023-02-01T05:01:49.726Z,73.14
2023-02-01T05:04:16.164Z,73.16
2023-02-01T05:06:42.552Z,73.25
2023-02-01T05:09:08.920Z,73.56
2023-02-01T05:11:54.022Z,73.70
2023-02-01T05:14:20.362Z,73.67
2023-02-01T05:16:49.609Z,73.42
2023-02-01T05:19:15.940Z,73.94
2023-02-01T05:21:42.261Z,73.78
2023-02-01T05:24:20.459Z,73.85
2023-02-01T05:26:48.121Z,73.99
2023-02-01T05:29:15.372Z,73.76
2023-02-01T05:31:42.353Z,74.10
2023-02-01T05:34:08.874Z,74.28
2023-02-01T05:36:35.227Z,74.33
2023-02-01T05:39:01.619Z,74.20
2023-02-01T05:41:28.056Z,74.40
2023-02-01T05:43:54.715Z,74.50
2023-02-01T05:46:21.406Z,74.49
2023-02-01T05:48:47.882Z,74.65
2023-02-01T05:51:14.265Z,74.37
2023-02-01T05:53:40.637Z,74.70
2023-02-01T05:56:07.933Z,74.41
2023-02-01T05:58:34.493Z,74.78
2023-02-01T06:01:01.792Z,74.86
2023-02-01T06:03:46.555Z,73.82
2023-02-01T06:06:13.135Z,74.91
2023-02-01T06:08:41.206Z,74.75
2023-02-01T06:11:07.951Z,74.81
2023-02-01T06:13:35.006Z,75.16
2023-02-01T06:16:03.458Z,75.02
2023-02-01T06:18:31.606Z,75.11
2023-02-01T06:21:24.997Z,74.32
2023-02-01T06:23:52.474Z,72.90
2023-02-01T06:26:19.044Z,74.25
2023-02-01T06:28:45.952Z,74.44
2023-02-01T06:31:12.994Z,74.61
2023-02-01T06:33:40.270Z,74.31
2023-02-01T06:36:08.400Z,74.34
2023-02-01T06:38:36.005Z,74.88
2023-02-01T06:41:03.470Z,74.67
2023-02-01T06:43:30.842Z,74.72
2023-02-01T06:46:05.252Z,73.85
2023-02-01T06:48:32.183Z,74.76
2023-02-01T06:50:58.891Z,74.62
2023-02-01T06:53:25.595Z,74.30
2023-02-01T06:55:56.439Z,74.42
2023-02-01T06:58:23.375Z,74.25
2023-02-01T07:00:50.070Z,74.37
2023-02-01T07:03:16.517Z,74.31
2023-02-01T07:05:43.069Z,74.17
2023-02-01T07:08:09.840Z,73.73
2023-02-01T07:10:36.427Z,73.63
2023-02-01T07:13:02.954Z,73.77
2023-02-01T07:15:29.445Z,73.76
2023-02-01T07:17:56.534Z,73.68
2023-02-01T07:20:23.724Z,73.27
2023-02-01T07:22:55.874Z,72.10
2023-02-01T07:25:22.525Z,73.10
2023-02-01T07:27:48.963Z,73.17
2023-02-01T07:30:15.607Z,73.51
2023-02-01T07:32:42.257Z,73.17
2023-02-01T07:35:08.961Z,73.43
2023-02-01T07:37:35.807Z,73.16
2023-02-01T07:40:02.454Z,73.21
2023-02-01T07:42:28.893Z,73.25
2023-02-01T07:44:55.477Z,72.87
2023-02-01T07:47:21.993Z,73.14
2023-02-01T07:49:48.559Z,72.75
2023-02-01T07:52:17.747Z,72.67
2023-02-01T07:54:44.527Z,72.79
2023-02-01T07:57:12.803Z,72.81
2023-02-01T07:59:59.200Z,72.45
2023-02-01T08:02:25.795Z,72.55
2023-02-01T08:04:52.283Z,72.52
2023-02-01T08:07:18.848Z,72.22
2023-02-01T08:09:45.356Z,72.40
2023-02-01T08:12:11.885Z,72.37
2023-02-01T08:14:38.409Z,71.82
2023-02-01T08:17:04.981Z,71.89
2023-02-01T08:19:31.537Z,71.89
2023-02-01T08:21:57.930Z,72.38
2023-02-01T08:24:24.449Z,72.21
2023-02-01T08:26:50.926Z,72.45
2023-02-01T08:29:17.477Z,72.20
2023-02-01T08:31:44.464Z,71.75
2023-02-01T08:34:12.912Z,71.98
2023-02-01T08:36:39.475Z,72.12
2023-02-01T08:39:09.817Z,71.94
2023-02-01T08:41:36.565Z,71.99
2023-02-01T08:44:03.066Z,71.83
2023-02-01T08:46:29.741Z,71.66
2023-02-01T08:48:56.781Z,71.25
2023-02-01T08:51:24.031Z,71.80
2023-02-01T08:53:51.288Z,71.80
2023-02-01T08:56:19.413Z,71.42
2023-02-01T08:58:46.137Z,71.36
2023-02-01T09:01:16.147Z,70.38
2023-02-01T09:03:42.866Z,71.24
2023-02-01T09:06:12.240Z,70.95
2023-02-01T09:08:39.802Z,71.32
2023-02-01T09:11:09.301Z,70.86
2023-02-01T09:13:36.473Z,71.21
2023-02-01T09:16:04.340Z,70.89
2023-02-01T09:18:31.010Z,71.11
2023-02-01T09:20:57.498Z,70.95
2023-02-01T09:23:24.081Z,71.14
2023-02-01T09:25:52.468Z,70.89
2023-02-01T09:28:19.613Z,70.74
2023-02-01T09:30:46.513Z,70.74
2023-02-01T09:33:13.317Z,70.38
2023-02-01T09:35:39.920Z,70.49
2023-02-01T09:38:06.384Z,69.69
2023-02-01T09:40:36.305Z,69.96
2023-02-01T09:43:11.700Z,68.02
2023-02-01T09:46:02.712Z,68.58
2023-02-01T09:48:33.884Z,69.69
2023-02-01T09:51:03.636Z,70.43
2023-02-01T09:53:41.314Z,68.67
2023-02-01T09:56:15.557Z,67.26
2023-02-01T09:58:48.589Z,69.12
2023-02-01T10:01:23.358Z,64.07
2023-02-01T10:03:51.319Z,69.65
2023-02-01T10:06:34.032Z,68.61
2023-02-01T10:09:16.211Z,67.21
2023-02-01T10:11:58.765Z,68.44
2023-02-01T10:14:26.438Z,68.71
2023-02-01T10:17:04.988Z,67.86
2023-02-01T10:19:50.078Z,66.98
2023-02-01T10:22:59.936Z,66.90
2023-02-01T10:25:29.595Z,68.07
2023-02-01T10:28:00.597Z,69.34
2023-02-01T10:30:35.787Z,69.00
2023-02-01T10:33:17.266Z,67.19
2023-02-01T10:35:45.622Z,68.85
2023-02-01T10:38:26.572Z,65.92
2023-02-01T10:40:56.125Z,69.25
2023-02-01T10:43:22.804Z,69.45
2023-02-01T10:45:49.636Z,69.31
2023-02-01T10:48:16.742Z,69.65
2023-02-01T10:51:00.045Z,67.75
2023-02-01T10:53:40.537Z,66.96
2023-02-01T10:56:09.484Z,69.15
2023-02-01T10:58:38.759Z,69.43
2023-02-01T11:01:08.735Z,68.25
2023-02-01T11:03:46.143Z,68.09
2023-02-01T11:06:40.126Z,67.27
2023-02-01T11:09:06.550Z,69.63
2023-02-01T11:11:34.011Z,69.47
2023-02-01T11:14:11.803Z,69.09
2023-02-01T11:16:39.750Z,69.35
2023-02-01T11:19:07.346Z,69.71
2023-02-01T11:21:35.435Z,69.18
2023-02-01T11:24:06.420Z,69.34
2023-02-01T11:26:34.010Z,70.17
2023-02-01T11:29:05.967Z,70.11
2023-02-01T11:31:35.563Z,70.23
2023-02-01T11:34:21.612Z,69.84
2023-02-01T11:36:50.775Z,70.66
2023-02-01T11:39:35.945Z,70.65
2023-02-01T11:42:17.916Z,70.65
2023-02-01T11:44:46.855Z,71.19
2023-02-01T11:47:26.943Z,71.15
2023-02-01T11:49:59.764Z,71.38
2023-02-01T11:52:35.055Z,71.85
2023-02-01T11:55:01.435Z,71.97
2023-02-01T11:58:00.384Z,71.83
2023-02-01T12:00:37.568Z,72.38
2023-02-01T12:03:34.682Z,71.85
2023-02-01T12:06:13.405Z,72.40
2023-02-01T12:08:52.178Z,72.44
2023-02-01T12:11:33.821Z,73.10
2023-02-01T12:14:46.006Z,73.36
2023-02-01T12:17:49.925Z,73.49
2023-02-01T12:20:54.551Z,73.54
2023-02-01T12:23:37.985Z,73.81
2023-02-01T12:26:19.743Z,74.19
2023-02-01T12:29:18.384Z,74.39
2023-02-01T12:32:02.887Z,74.61
2023-02-01T12:34:50.495Z,74.57
2023-02-01T12:37:42.089Z,74.78
2023-02-01T12:40:40.689Z,75.02
2023-02-01T12:43:26.041Z,74.95
2023-02-01T12:46:05.434Z,74.92
2023-02-01T12:48:38.489Z,75.14
2023-02-01T12:51:10.326Z,74.87
2023-02-01T12:54:01.421Z,74.81
2023-02-01T12:56:41.056Z,75.07
2023-02-01T12:59:21.882Z,75.12
2023-02-01T13:01:53.297Z,75.09
2023-02-01T13:04:53.270Z,75.69
2023-02-01T13:07:30.440Z,75.75
2023-02-01T13:10:16.198Z,76.05
2023-02-01T13:13:17.704Z,75.67
2023-02-01T13:16:06.827Z,75.68
2023-02-01T13:18:40.679Z,75.57
2023-02-01T13:21:12.090Z,76.03
2023-02-01T13:23:41.016Z,76.09
2023-02-01T13:26:07.545Z,75.97
2023-02-01T13:28:50.772Z,75.67
2023-02-01T13:31:36.984Z,75.18
2023-02-01T13:34:34.845Z,75.47
2023-02-01T13:37:06.623Z,75.61
2023-02-01T13:40:18.514Z,75.42
2023-02-01T13:42:52.645Z,75.56
2023-02-01T13:45:24.212Z,75.30
2023-02-01T13:47:54.292Z,75.37
2023-02-01T13:50:37.177Z,75.04
2023-02-01T13:53:12.699Z,74.37
2023-02-01T13:55:41.877Z,74.15
2023-02-01T13:58:15.795Z,74.07
2023-02-01T14:00:46.688Z,73.63
2023-02-01T14:03:43.137Z,73.67
2023-02-01T14:06:33.725Z,73.08
2023-02-01T14:09:13.433Z,73.43
2023-02-01T14:11:47.061Z,74.32
2023-02-01T14:14:16.725Z,75.17
2023-02-01T14:16:55.621Z,76.09
2023-02-01T14:19:28.329Z,75.66
2023-02-01T14:22:02.027Z,75.76
2023-02-01T14:24:34.405Z,75.53
2023-02-01T14:27:09.028Z,75.66
2023-02-01T14:29:41.423Z,75.25
2023-02-01T14:32:07.982Z,75.59
2023-02-01T14:34:38.731Z,75.99
2023-02-01T14:37:09.555Z,76.22
2023-02-01T14:40:22.676Z,75.75
2023-02-01T14:42:54.660Z,76.07
2023-02-01T14:45:24.677Z,75.91
2023-02-01T14:48:15.742Z,75.31
2023-02-01T14:50:48.548Z,74.73
2023-02-01T14:53:34.171Z,74.35
2023-02-01T14:56:07.085Z,74.77
2023-02-01T14:58:37.392Z,74.85
2023-02-01T15:01:32.051Z,74.37
2023-02-01T15:04:11.588Z,74.83
2023-02-01T15:06:41.057Z,75.55
2023-02-01T15:09:16.698Z,75.76
2023-02-01T15:12:07.018Z,75.23
2023-02-01T15:14:43.502Z,75.24
2023-02-01T15:17:24.828Z,75.29
2023-02-01T15:19:55.157Z,75.25
2023-02-01T15:22:22.199Z,75.60
2023-02-01T15:25:00.445Z,74.34
2023-02-01T15:27:29.169Z,75.38
2023-02-01T15:29:55.675Z,75.26
2023-02-01T15:32:39.760Z,74.55
2023-02-01T15:35:07.133Z,75.29
2023-02-01T15:37:33.697Z,75.49
2023-02-01T15:40:12.674Z,74.77
2023-02-01T15:42:53.616Z,74.77
2023-02-01T15:45:23.179Z,75.31
2023-02-01T15:47:52.136Z,75.55
2023-02-01T15:50:25.213Z,75.07
2023-02-01T15:52:55.016Z,75.18
2023-02-01T15:55:30.580Z,75.06
2023-02-01T15:57:57.314Z,75.42
2023-02-01T16:00:29.833Z,75.10
2023-02-01T16:03:01.505Z,74.63
2023-02-01T16:05:39.440Z,74.79
2023-02-01T16:08:23.967Z,74.20
2023-02-01T16:10:53.421Z,74.46
2023-02-01T16:13:21.475Z,74.63
2023-02-01T16:15:48.826Z,74.71
2023-02-01T16:18:17.830Z,74.17
2023-02-01T16:20:45.313Z,74.04
2023-02-01T16:23:11.868Z,74.20
2023-02-01T16:25:40.840Z,73.85
2023-02-01T16:28:07.636Z,74.00
2023-02-01T16:30:34.412Z,74.23
2023-02-01T16:33:06.221Z,74.21
2023-02-01T16:35:38.808Z,74.05
2023-02-01T16:38:13.262Z,74.10
2023-02-01T16:40:41.266Z,74.34
2023-02-01T16:43:20.130Z,73.48
2023-02-01T16:45:49.532Z,74.18
2023-02-01T16:48:19.127Z,73.40
2023-02-01T16:50:48.141Z,73.84
2023-02-01T16:53:17.356Z,73.91
2023-02-01T16:55:44.467Z,74.06
2023-02-01T16:58:11.052Z,74.46
2023-02-01T17:00:40.474Z,74.71
2023-02-01T17:03:06.876Z,74.60
2023-02-01T17:05:34.988Z,74.40
2023-02-01T17:08:06.505Z,74.13
2023-02-01T17:10:34.379Z,74.39
2023-02-01T17:13:01.856Z,74.23
2023-02-01T17:15:34.951Z,73.81
2023-02-01T17:18:02.761Z,74.23
2023-02-01T17:20:32.726Z,74.18
2023-02-01T17:22:59.805Z,74.14
2023-02-01T17:25:28.552Z,74.20
2023-02-01T17:27:55.238Z,74.07
2023-02-01T17:30:21.963Z,74.09
2023-02-01T17:32:48.420Z,73.99
2023-02-01T17:35:28.070Z,72.84
2023-02-01T17:37:55.085Z,73.92
2023-02-01T17:40:21.555Z,73.87
2023-02-01T17:42:48.583Z,73.37
2023-02-01T17:45:37.320Z,71.56
2023-02-01T17:48:05.697Z,73.61
2023-02-01T17:50:34.751Z,73.81
2023-02-01T17:53:02.999Z,73.39
2023-02-01T17:55:29.919Z,73.40
2023-02-01T17:57:56.291Z,73.36
2023-02-01T18:00:22.809Z,73.28
2023-02-01T18:02:49.354Z,73.44
2023-02-01T18:05:44.570Z,72.18
2023-02-01T18:08:10.940Z,73.27
2023-02-01T18:10:37.300Z,73.18
2023-02-01T18:13:03.905Z,73.16
2023-02-01T18:15:31.732Z,72.89
2023-02-01T18:17:59.357Z,72.98
2023-02-01T18:20:27.379Z,73.00
2023-02-01T18:22:53.823Z,73.05
2023-02-01T18:25:26.323Z,72.24
2023-02-01T18:27:54.861Z,73.01
2023-02-01T18:30:23.162Z,72.94
2023-02-01T18:32:50.113Z,73.31
2023-02-01T18:35:25.345Z,72.79
2023-02-01T18:37:53.419Z,73.21
2023-02-01T18:40:23.055Z,72.80
2023-02-01T18:42:50.385Z,73.50
2023-02-01T18:45:37.088Z,72.34
2023-02-01T18:48:05.021Z,73.36
2023-02-01T18:50:34.538Z,73.02
2023-02-01T18:53:03.640Z,73.42
2023-02-01T18:55:32.485Z,73.88
2023-02-01T18:58:00.536Z,73.90
2023-02-01T19:00:28.322Z,74.09
2023-02-01T19:02:54.919Z,74.38
2023-02-01T19:05:21.915Z,74.15
2023-02-01T19:07:48.568Z,74.28
2023-02-01T19:10:22.252Z,73.99
2023-02-01T19:12:50.550Z,74.32
2023-02-01T19:15:18.216Z,73.97
2023-02-01T19:17:47.790Z,73.92
2023-02-01T19:20:17.799Z,73.66
2023-02-01T19:22:44.746Z,73.92
2023-02-01T19:25:15.848Z,72.98
2023-02-01T19:27:42.318Z,73.90
2023-02-01T19:30:12.636Z,73.48
2023-02-01T19:32:39.724Z,73.57
2023-02-01T19:35:07.928Z,73.17
2023-02-01T19:37:34.517Z,73.35
2023-02-01T19:40:00.874Z,73.34
2023-02-01T19:42:27.784Z,73.25
2023-02-01T19:44:54.170Z,73.29
2023-02-01T19:47:20.535Z,73.54
2023-02-01T19:49:46.862Z,73.46
2023-02-01T19:52:13.206Z,73.54
2023-02-01T19:54:39.580Z,73.40
2023-02-01T19:57:05.930Z,73.53
2023-02-01T19:59:32.332Z,73.59
2023-02-01T20:01:57.839Z,73.91
2023-02-01T20:04:24.662Z,73.79
2023-02-01T20:06:51.040Z,74.40
2023-02-01T20:09:19.619Z,74.11
2023-02-01T20:11:46.335Z,74.22
2023-02-01T20:14:13.442Z,74.22
2023-02-01T20:16:41.108Z,73.96
2023-02-01T20:19:09.186Z,73.61
2023-02-01T20:21:36.963Z,73.59
2023-02-01T20:24:05.555Z,72.88
2023-02-01T20:26:34.410Z,73.56
2023-02-01T20:29:01.946Z,73.69
2023-02-01T20:31:29.754Z,73.51
2023-02-01T20:33:57.760Z,73.41
2023-02-01T20:36:26.259Z,73.51
2023-02-01T20:38:54.480Z,73.38
2023-02-01T20:41:21.582Z,73.29
2023-02-01T20:43:48.618Z,73.59
2023-02-01T20:46:16.055Z,73.44
2023-02-01T20:48:44.168Z,73.11
2023-02-01T20:51:12.079Z,73.36
2023-02-01T20:53:39.420Z,73.10
2023-02-01T20:56:06.256Z,73.34
2023-02-01T20:58:32.985Z,73.54
2023-02-01T21:00:59.476Z,73.18
2023-02-01T21:03:26.030Z,73.15
2023-02-01T21:05:55.064Z,72.88
2023-02-01T21:08:21.878Z,73.09
2023-02-01T21:11:09.730Z,72.48
2023-02-01T21:13:42.760Z,73.27
2023-02-01T21:16:10.582Z,72.26
2023-02-01T21:18:37.237Z,73.49
2023-02-01T21:21:05.535Z,73.33
2023-02-01T21:23:31.939Z,73.05
2023-02-01T21:26:02.454Z,72.73
2023-02-01T21:28:28.875Z,73.46
2023-02-01T21:30:55.288Z,73.57
2023-02-01T21:33:21.849Z,73.34
2023-02-01T21:35:50.316Z,73.10
2023-02-01T21:38:17.205Z,73.64
2023-02-01T21:40:43.578Z,73.46
2023-02-01T21:43:09.926Z,73.48
2023-02-01T21:45:38.307Z,73.29
2023-02-01T21:48:06.973Z,73.40
2023-02-01T21:50:35.128Z,73.67
2023-02-01T21:53:01.713Z,73.17
2023-02-01T21:55:28.028Z,73.60
2023-02-01T21:57:54.435Z,73.77
2023-02-01T22:00:21.109Z,73.54
2023-02-01T22:02:47.457Z,73.83
2023-02-01T22:05:14.672Z,73.61
2023-02-01T22:07:41.115Z,73.92
2023-02-01T22:10:07.835Z,73.67
2023-02-01T22:12:34.239Z,74.13
2023-02-01T22:15:00.573Z,74.17
2023-02-01T22:17:27.230Z,73.82
2023-02-01T22:19:53.542Z,73.84
2023-02-01T22:22:19.878Z,73.96
2023-02-01T22:24:46.200Z,74.28
2023-02-01T22:27:13.245Z,74.07
2023-02-01T22:29:40.952Z,74.21
2023-02-01T22:32:08.429Z,74.05
2023-02-01T22:34:34.783Z,74.01
2023-02-01T22:37:01.121Z,74.02
2023-02-01T22:39:27.465Z,74.12
2023-02-01T22:41:53.792Z,74.28
2023-02-01T22:44:20.111Z,74.47
2023-02-01T22:46:46.726Z,74.29
2023-02-01T22:49:13.363Z,74.03
2023-02-01T22:51:39.753Z,74.23
2023-02-01T22:56:48.209Z,74.43
2023-02-01T22:59:15.199Z,74.55
2023-02-01T23:01:42.147Z,74.57
2023-02-01T23:04:12.377Z,74.33
2023-02-01T23:06:39.637Z,74.62
2023-02-01T23:09:26.119Z,74.50
2023-02-01T23:11:53.971Z,74.44
2023-02-01T23:14:20.982Z,74.50
2023-02-01T23:16:49.904Z,74.47
2023-02-01T23:19:18.253Z,74.61
2023-02-01T23:21:44.724Z,74.33
2023-02-01T23:24:13.150Z,74.46
2023-02-01T23:26:39.956Z,74.96
2023-02-01T23:29:06.615Z,75.07
2023-02-01T23:31:34.964Z,74.98
2023-02-01T23:34:03.681Z,75.03
2023-02-01T23:36:32.914Z,74.97
2023-02-01T23:38:59.620Z,74.88
2023-02-01T23:41:29.919Z,74.95
2023-02-01T23:43:59.089Z,75.04
2023-02-01T23:46:27.249Z,74.99
2023-02-01T23:48:53.893Z,75.35
2023-02-01T23:51:21.320Z,74.90
2023-02-01T23:53:48.292Z,75.01
2023-02-01T23:56:22.808Z,74.64
2023-02-01T23:58:51.661Z,75.24
